Bateman, Wisconsin
Current Conditions -  °F | °C
As of 6:29 AM on Monday 26 Jan 2015 (Local Time) from KEAU Reporting Station
Moderate Snow Moderate Snow  
Wind Chill:   Ceiling: 1100
Heat Index: 20°   Visibility: 0.5mi
Dew Point: 17°   Wind: 12mph
Humidity: 89%   Direction: 160°SSE
Pressure: 29.78"   Gusts: NA
Location:  44.9743°N, 91.4379°W
Report Text: KEAU 261229Z 16010KT 1/2SM SN FZFG VV011 M07/M08 A2978 RMK AO2 P0001 T10671083
Loading
Personal Weather Stations






























Interactive Weather Map New forecast layout! Learn more

10-Day Weather Forecast

Advertisements
Track Severe Weather on mobile